Time;durP1;ratioP1;P1;durP2;ratioP2;P2;SDS_P1;SDS_P2;PMS_P1;PMS_P2;Temp;Humidity;BMP_temperature;BMP_pressure;BME280_temperature;BME280_humidity;BME280_pressure;Samples;Min_cycle;Max_cycle;Signal;HPM_P1;HPM_P2
2022/06/21 00:03:19;;;;;;;1.70;1.27;;;24.20;80.80;;;23.42;60.40;99333.25;9817210;29;96798;-87
2022/06/21 00:08:32;;;;;;;1.80;1.20;;;24.10;80.70;;;23.41;60.17;99318.91;9843862;29;96824;-87
2022/06/21 00:13:35;;;;;;;1.75;1.20;;;24.10;80.20;;;23.43;59.86;99319.44;9835217;29;96714;-87
2022/06/21 00:18:40;;;;;;;2.30;1.13;;;24.20;79.70;;;23.40;59.43;99319.19;9842791;29;98416;-87
2022/06/21 00:23:44;;;;;;;2.55;1.20;;;24.20;79.40;;;23.39;58.14;99328.38;9864413;29;96657;-88
2022/06/21 00:28:48;;;;;;;1.50;1.00;;;24.10;76.90;;;23.46;55.08;99335.16;9823958;29;96724;-87
2022/06/21 00:33:51;;;;;;;1.40;0.98;;;24.20;73.50;;;23.57;54.85;99330.53;9811137;29;96596;-85
2022/06/21 00:38:57;;;;;;;2.22;1.02;;;24.30;74.30;;;23.56;54.82;99350.59;9832746;29;96542;-88
2022/06/21 00:44:03;;;;;;;1.13;0.80;;;24.30;74.00;;;23.46;54.74;99345.19;9842070;29;97348;-85
2022/06/21 00:49:26;;;;;;;1.13;0.90;;;24.20;74.20;;;23.32;55.61;99338.69;9821662;29;96802;-85
2022/06/21 00:54:52;;;;;;;1.00;0.60;;;24.10;75.20;;;23.17;55.46;99337.63;9846572;29;96810;-84
2022/06/21 00:59:58;;;;;;;1.30;0.77;;;23.90;74.60;;;23.03;55.91;99346.53;9812423;29;97308;-84
2022/06/21 01:05:03;;;;;;;1.40;1.10;;;23.80;75.00;;;22.91;55.75;99350.34;9813546;29;97027;-88
2022/06/21 01:10:14;;;;;;;0.88;0.70;;;23.60;75.00;;;22.80;55.89;99353.28;9822765;29;97033;-86
2022/06/21 01:15:30;;;;;;;1.45;0.85;;;23.60;75.60;;;22.68;57.12;99357.06;9845506;29;96652;-87
2022/06/21 01:20:38;;;;;;;2.15;1.10;;;23.50;77.00;;;22.53;58.35;99358.91;9836337;29;96675;-82
2022/06/21 01:26:38;;;;;;;1.30;0.70;;;23.40;77.90;;;22.37;58.57;99352.63;9842615;29;96576;-84
2022/06/21 01:31:48;;;;;;;1.48;1.00;;;23.20;78.20;;;22.22;59.21;99339.03;9848303;29;96718;-88
2022/06/21 01:37:08;;;;;;;1.65;1.15;;;23.10;79.40;;;22.09;59.58;99354.69;9840525;29;98442;-85
2022/06/21 01:42:19;;;;;;;1.55;0.82;;;22.90;78.60;;;21.99;59.21;99365.41;9835446;29;96606;-86
2022/06/21 01:47:30;;;;;;;3.33;1.60;;;22.80;78.90;;;21.85;60.04;99367.78;9853302;29;96663;-88
2022/06/21 01:52:38;;;;;;;1.85;0.80;;;22.70;79.80;;;21.70;60.17;99346.06;9832497;29;96796;-88
2022/06/21 01:57:41;;;;;;;0.98;0.63;;;22.50;79.90;;;21.56;60.15;99356.53;9838676;29;97539;-84
2022/06/21 02:02:51;;;;;;;1.20;0.77;;;22.40;79.20;;;21.49;59.47;99380.25;9837652;29;97163;-85
2022/06/21 02:07:59;;;;;;;0.85;0.60;;;22.30;79.00;;;21.43;59.51;99391.28;9806506;29;96759;-92
2022/06/21 02:13:21;;;;;;;1.92;1.02;;;22.20;78.90;;;21.35;60.17;99381.75;9836523;29;96651;-89
2022/06/21 02:18:27;;;;;;;1.77;1.02;;;22.10;80.10;;;21.26;59.54;99386.81;9823666;29;97724;-88
2022/06/21 02:23:30;;;;;;;1.65;0.90;;;22.10;78.90;;;21.21;59.01;99394.03;9860635;29;99007;-87
2022/06/21 02:28:33;;;;;;;1.60;0.90;;;22.00;78.20;;;21.14;58.77;99385.34;9829240;29;96571;-92
2022/06/21 02:33:38;;;;;;;1.40;1.02;;;21.90;78.40;;;21.06;59.09;99408.25;9840614;29;96711;-89
2022/06/21 02:38:48;;;;;;;0.95;0.60;;;21.80;78.90;;;20.98;58.36;99408.69;9812799;29;96723;-87
2022/06/21 02:44:15;;;;;;;0.85;0.70;;;21.80;78.10;;;20.87;57.89;99418.59;9829851;29;96649;-90
2022/06/21 02:49:34;;;;;;;2.22;0.82;;;21.70;77.30;;;20.76;58.09;99430.34;9823989;29;96730;-91
2022/06/21 02:54:56;;;;;;;3.00;1.05;;;21.60;77.60;;;20.58;59.25;99442.28;9811928;29;96773;-89
2022/06/21 03:00:06;;;;;;;2.13;1.05;;;21.40;79.40;;;20.38;61.07;99456.28;9834735;29;96693;-90
2022/06/21 03:05:19;;;;;;;3.22;1.40;;;21.20;81.20;;;20.18;62.74;99464.13;9852882;29;96660;-90
2022/06/21 03:10:26;;;;;;;3.65;1.23;;;21.00;83.10;;;19.95;64.00;99465.13;9829483;29;97385;-85
2022/06/21 03:15:30;;;;;;;2.53;1.40;;;20.80;84.50;;;19.77;65.04;99491.28;9835667;29;97315;-86
2022/06/21 03:20:34;;;;;;;2.33;1.50;;;20.70;85.90;;;19.62;65.68;99514.47;9807650;29;96966;-83
2022/06/21 03:25:57;;;;;;;1.88;1.42;;;20.50;87.20;;;19.49;66.24;99521.78;9834997;29;96685;-93
2022/06/21 03:31:21;;;;;;;2.35;1.10;;;20.40;87.00;;;19.40;66.02;99525.09;9836023;29;98723;-92
2022/06/21 03:36:26;;;;;;;1.30;1.17;;;20.30;87.80;;;19.27;66.50;99526.22;9813820;29;98395;-91
2022/06/21 03:41:45;;;;;;;2.05;1.02;;;20.10;88.00;;;19.16;66.61;99532.47;9821884;29;96755;-90
2022/06/21 03:47:25;;;;;;;3.22;1.00;;;20.00;87.80;;;19.10;65.96;99541.50;9827454;29;97295;-90
2022/06/21 03:53:28;;;;;;;0.90;0.60;;;20.00;86.90;;;19.05;64.80;99554.88;9842332;29;97294;-88
2022/06/21 03:58:37;;;;;;;2.55;1.20;;;19.90;85.40;;;19.00;64.12;99536.72;9847404;29;96685;-86
2022/06/21 04:04:01;;;;;;;1.20;0.70;;;19.90;85.10;;;18.96;62.41;99547.16;9841551;29;96588;-86
2022/06/21 04:09:16;;;;;;;1.17;0.88;;;19.80;81.50;;;18.98;62.00;99553.13;9849725;29;98168;-92
2022/06/21 04:15:02;;;;;;;1.13;0.60;;;19.90;82.60;;;19.00;60.68;99547.50;9850243;29;96756;-88
2022/06/21 04:20:21;;;;;;;0.77;0.40;;;19.90;80.10;;;18.98;57.82;99549.63;9847722;29;96602;-84
2022/06/21 04:25:56;;;;;;;0.75;0.50;;;19.90;76.20;;;18.98;56.59;99549.63;9827310;29;96699;-87
2022/06/21 04:31:21;;;;;;;0.60;0.20;;;19.80;74.60;;;19.01;55.72;99548.31;9829244;29;97417;-86
2022/06/21 04:36:57;;;;;;;0.95;0.40;;;19.90;74.40;;;19.02;54.32;99548.09;9848559;29;96832;-88
2022/06/21 04:42:02;;;;;;;1.00;0.60;;;19.90;71.90;;;19.07;52.66;99556.28;9816744;29;97760;-85
2022/06/21 04:47:07;;;;;;;0.55;0.40;;;19.90;69.90;;;19.05;51.39;99536.81;9861892;29;98765;-86
2022/06/21 04:52:26;;;;;;;0.50;0.32;;;19.90;69.00;;;19.05;49.42;99552.97;9838739;29;96596;-87
2022/06/21 04:57:32;;;;;;;0.38;0.25;;;19.90;66.50;;;19.10;49.78;99580.03;9831546;29;96671;-87
2022/06/21 05:02:57;;;;;;;1.38;0.32;;;19.90;67.10;;;19.14;49.68;99588.44;9819150;29;97807;-86
2022/06/21 05:08:16;;;;;;;0.17;0.17;;;20.00;67.50;;;19.18;50.19;99590.41;9831751;29;96599;-86
2022/06/21 05:13:38;;;;;;;0.68;0.38;;;20.00;68.40;;;19.29;49.64;99594.13;9823908;29;96688;-87
2022/06/21 05:18:49;;;;;;;0.43;0.20;;;20.10;67.60;;;19.39;47.15;99591.66;9838541;29;96952;-90
2022/06/21 05:23:52;;;;;;;1.35;0.40;;;20.20;62.80;;;19.43;46.44;99592.81;9825403;29;96612;-89
2022/06/21 05:29:04;;;;;;;0.17;0.10;;;20.30;63.80;;;19.49;45.66;99601.78;9818223;29;98754;-89
2022/06/21 05:34:31;;;;;;;1.05;0.40;;;20.30;63.20;;;19.61;45.04;99610.69;9821108;29;97519;-93
2022/06/21 05:39:47;;;;;;;0.28;0.22;;;20.40;61.20;;;19.75;43.88;99600.41;9831972;29;98408;-90
2022/06/21 05:44:54;;;;;;;0.30;0.10;;;20.60;58.40;;;19.92;43.63;99620.16;9830284;29;99043;-91
2022/06/21 05:49:59;;;;;;;0.20;0.10;;;20.70;58.80;;;20.05;43.36;99625.22;9824905;29;97036;-90
2022/06/21 05:55:07;;;;;;;0.15;0.10;;;20.90;60.70;;;20.19;39.57;99622.19;9833423;29;96835;-92
2022/06/21 06:00:50;;;;;;;0.32;0.20;;;21.00;58.80;;;20.34;39.27;99637.84;9839774;29;97238;-93
2022/06/21 06:05:56;;;;;;;0.70;0.35;;;21.20;54.30;;;20.56;39.51;99634.16;9833612;29;96741;-95
2022/06/21 06:11:02;;;;;;;0.30;0.13;;;21.40;56.80;;;20.74;38.96;99637.66;9853251;29;96712;-96
2022/06/21 06:16:24;;;;;;;0.20;0.20;;;21.60;56.80;;;20.82;37.02;99648.03;9815533;29;97024;-91
2022/06/21 06:21:53;;;;;;;0.30;0.30;;;21.70;52.80;;;20.87;37.86;99655.38;9853846;29;98497;-90
2022/06/21 06:27:00;;;;;;;0.40;0.22;;;21.70;53.60;;;20.91;37.16;99662.75;9822532;29;98363;-92
2022/06/21 06:32:31;;;;;;;0.63;0.22;;;21.80;52.30;;;21.03;36.33;99668.84;9821541;29;96750;-93
2022/06/21 06:37:42;;;;;;;0.40;0.20;;;21.90;52.30;;;21.03;35.35;99679.66;9838801;29;96765;-90
2022/06/21 06:42:49;;;;;;;1.50;0.20;;;21.90;50.10;;;20.90;36.68;99679.22;9835674;29;98292;-93
2022/06/21 06:48:03;;;;;;;0.40;0.25;;;21.80;52.20;;;20.86;37.31;99686.97;9810499;29;96976;-89
2022/06/21 06:53:09;;;;;;;0.65;0.20;;;21.70;52.60;;;20.77;37.52;99685.78;9817202;29;98353;-90
2022/06/21 06:58:38;;;;;;;0.38;0.30;;;21.70;53.60;;;20.74;38.52;99688.94;9844612;29;98253;-87
2022/06/21 07:04:03;;;;;;;1.05;0.40;;;21.60;54.60;;;20.82;38.87;99697.47;9845010;29;96619;-88
2022/06/21 07:09:47;;;;;;;0.35;0.25;;;21.60;54.90;;;20.77;38.41;99701.97;9844501;29;96539;-89
2022/06/21 07:14:52;;;;;;;0.40;0.30;;;21.60;53.70;;;20.62;37.26;99704.41;9837992;29;98178;-85
2022/06/21 07:19:56;;;;;;;0.10;0.10;;;21.50;52.40;;;20.46;37.59;99714.97;9837844;29;96595;-87
2022/06/21 07:25:15;;;;;;;3.72;0.40;;;21.30;52.90;;;20.47;38.59;99721.19;9842885;29;97613;-85
2022/06/21 07:30:21;;;;;;;0.28;0.20;;;21.30;53.70;;;20.52;38.54;99719.41;9859769;29;96627;-89
2022/06/21 07:35:35;;;;;;;0.50;0.25;;;21.30;53.50;;;20.61;38.88;99727.09;9840387;29;96703;-87
2022/06/21 07:41:09;;;;;;;0.40;0.20;;;21.40;55.00;;;20.69;39.02;99721.25;9843054;29;96487;-86
2022/06/21 07:46:23;;;;;;;0.38;0.20;;;21.50;53.60;;;20.85;38.81;99729.38;9858704;29;98833;-89
2022/06/21 07:51:35;;;;;;;1.08;0.40;;;21.60;54.00;;;21.00;38.74;99736.09;9844290;29;96668;-90
2022/06/21 07:56:54;;;;;;;0.30;0.10;;;21.80;54.20;;;21.13;38.56;99730.31;9840354;29;96808;-87
2022/06/21 08:07:32;;;;;;;1.65;0.63;;;21.80;53.80;;;20.98;37.92;99728.19;9858765;29;96486;-89
2022/06/21 08:12:34;;;;;;;0.20;0.10;;;21.80;53.50;;;21.02;38.08;99723.94;9842729;29;98329;-87
2022/06/21 08:17:58;;;;;;;0.90;0.25;;;21.80;53.80;;;21.16;36.93;99723.59;9813554;29;96709;-90
2022/06/21 08:23:10;;;;;;;0.40;0.20;;;21.90;52.10;;;21.23;36.27;99730.47;9843607;29;96476;-91
2022/06/21 08:28:38;;;;;;;0.32;0.20;;;22.00;51.10;;;21.37;36.50;99731.78;9824941;29;98324;-93
2022/06/21 08:34:00;;;;;;;0.73;0.30;;;22.10;51.90;;;21.43;34.89;99729.16;9843143;29;96691;-87
2022/06/21 08:39:27;;;;;;;0.98;0.30;;;22.20;49.00;;;21.45;34.61;99730.53;9845252;29;96922;-90
2022/06/21 08:45:40;;;;;;;0.20;0.10;;;22.20;49.70;;;21.60;35.34;99725.31;9847833;29;96668;-90
2022/06/21 08:51:10;;;;;;;0.35;0.15;;;22.30;50.40;;;21.79;34.33;99739.34;9861361;29;97049;-89
2022/06/21 08:56:29;;;;;;;0.60;0.30;;;22.50;49.10;;;21.88;34.02;99723.47;9864771;29;96592;-90
2022/06/21 09:02:10;;;;;;;0.60;0.30;;;22.60;49.40;;;22.03;34.21;99723.66;9848161;29;96537;-91
2022/06/21 09:07:24;;;;;;;0.85;0.22;;;22.70;50.20;;;22.21;33.44;99716.28;9864518;29;97481;-90
2022/06/21 09:13:09;;;;;;;0.47;0.20;;;22.90;48.30;;;22.22;31.08;99729.53;9847557;29;96929;-86
2022/06/21 09:18:24;;;;;;;0.40;0.30;;;23.00;45.80;;;22.20;32.31;99725.47;9847930;29;97381;-88
2022/06/21 09:23:51;;;;;;;0.15;0.15;;;22.90;47.50;;;22.36;32.63;99728.03;9863765;29;96765;-89
2022/06/21 09:29:08;;;;;;;0.57;0.15;;;23.10;48.20;;;22.47;31.47;99720.84;9830839;29;96568;-94
2022/06/21 09:34:45;;;;;;;0.45;0.22;;;23.20;46.00;;;22.60;31.66;99714.19;9831266;29;96616;-96
2022/06/21 09:40:07;;;;;;;0.17;0.10;;;23.40;46.80;;;22.79;30.78;99709.16;9833240;29;96813;-95
2022/06/21 09:45:50;;;;;;;0.20;0.20;;;23.50;45.70;;;22.95;31.60;99702.81;9865755;29;96520;-95
2022/06/21 09:51:26;;;;;;;0.75;0.40;;;23.60;46.80;;;23.15;31.92;99713.81;9862857;29;98338;-95
2022/06/21 09:56:56;;;;;;;0.55;0.40;;;23.90;47.50;;;23.37;32.94;99716.34;9830371;29;96844;-93
2022/06/21 10:02:18;;;;;;;1.75;0.35;;;24.10;47.80;;;23.49;32.19;99710.69;9823926;29;96875;-96
2022/06/21 10:07:36;;;;;;;0.40;0.20;;;24.20;46.90;;;23.55;30.88;99709.66;9829836;29;96645;-94
2022/06/21 10:13:16;;;;;;;0.80;0.20;;;24.30;45.80;;;23.61;29.86;99718.63;9855772;29;96509;-93
2022/06/21 10:18:31;;;;;;;1.65;0.20;;;24.40;45.20;;;23.65;28.83;99723.28;9841067;29;97245;-91
2022/06/21 10:24:23;;;;;;;0.95;0.30;;;24.40;42.90;;;23.60;28.88;99720.50;9850277;29;96564;-91
2022/06/21 10:29:40;;;;;;;0.20;0.20;;;24.30;43.80;;;23.63;28.44;99720.03;9845334;29;96713;-94
2022/06/21 10:35:47;;;;;;;0.50;0.20;;;24.30;42.80;;;23.68;28.75;99706.47;9831955;29;96561;-93
2022/06/21 10:41:19;;;;;;;0.40;0.13;;;24.40;43.40;;;23.83;29.43;99713.03;9827546;29;96970;-92
2022/06/21 10:47:08;;;;;;;0.28;0.17;;;24.60;44.50;;;23.87;28.94;99701.41;9845714;29;96644;-95
2022/06/21 10:52:36;;;;;;;0.22;0.15;;;24.60;44.00;;;23.91;28.88;99705.19;9779954;29;96620;-89
2022/06/21 10:58:40;;;;;;;0.63;0.13;;;24.60;44.00;;;24.17;29.47;99707.94;9816996;29;96821;-94
2022/06/21 11:04:19;;;;;;;0.30;0.10;;;24.80;44.00;;;24.32;29.54;99701.72;9750558;29;96822;-94
2022/06/21 11:09:42;;;;;;;1.15;0.28;;;25.00;44.80;;;24.50;28.67;99706.66;9844959;29;97551;-92
2022/06/21 11:15:01;;;;;;;0.10;0.10;;;25.20;43.40;;;24.55;28.60;99703.94;9847978;29;96510;-87
2022/06/21 11:20:25;;;;;;;0.20;0.20;;;25.30;43.40;;;24.65;27.84;99706.66;9841120;29;96644;-89
2022/06/21 11:25:39;;;;;;;0.40;0.10;;;25.40;43.10;;;24.71;28.45;99721.88;9859904;29;96679;-95
2022/06/21 11:31:12;;;;;;;0.20;0.15;;;25.40;43.80;;;24.88;28.81;99720.75;9857178;29;98309;-93
2022/06/21 11:36:52;;;;;;;0.22;0.17;;;25.50;44.10;;;24.99;29.13;99720.47;9844936;29;98268;-92
2022/06/21 11:42:26;;;;;;;1.88;0.20;;;25.70;44.50;;;25.19;29.81;99711.50;9846350;29;96516;-94
2022/06/21 11:47:54;;;;;;;0.43;0.10;;;25.80;45.40;;;25.27;28.50;99716.38;9861417;29;96545;-95
2022/06/21 11:53:07;;;;;;;0.20;0.10;;;25.90;43.50;;;25.27;28.41;99737.31;9861108;29;96490;-94
2022/06/21 11:58:22;;;;;;;0.57;0.25;;;26.00;44.00;;;25.46;28.97;99719.28;9809129;29;98227;-88
2022/06/21 12:03:37;;;;;;;0.20;0.20;;;26.10;44.30;;;25.51;28.76;99726.63;9829661;29;96770;-87
2022/06/21 12:09:19;;;;;;;0.50;0.30;;;26.20;43.70;;;25.51;29.07;99727.44;9860918;29;96494;-93
2022/06/21 12:15:08;;;;;;;0.82;0.32;;;26.20;43.90;;;25.53;28.56;99710.84;9852172;29;97069;-88
2022/06/21 12:20:51;;;;;;;0.20;0.20;;;26.20;43.60;;;25.68;28.82;99712.69;9867464;29;96623;-88
2022/06/21 12:25:54;;;;;;;0.20;0.20;;;26.30;43.90;;;25.86;27.61;99714.81;9828964;29;96720;-91
2022/06/21 12:31:11;;;;;;;0.75;0.10;;;26.50;42.30;;;25.94;28.06;99716.13;9812620;29;96660;-94
2022/06/21 12:36:28;;;;;;;0.47;0.25;;;26.60;43.20;;;26.07;26.94;99702.69;9818142;29;96632;-90
2022/06/21 12:42:00;;;;;;;0.20;0.20;;;26.80;42.00;;;26.14;27.49;99691.47;9851821;29;96723;-89
2022/06/21 12:47:38;;;;;;;0.32;0.20;;;26.90;42.60;;;26.35;28.14;99676.63;9864317;29;96683;-94
2022/06/21 12:53:29;;;;;;;0.95;0.10;;;27.00;43.10;;;26.49;26.99;99679.53;9828763;29;98754;-88
2022/06/21 12:59:34;;;;;;;0.70;0.20;;;27.20;42.30;;;26.61;26.42;99666.34;9791276;29;96803;-85
2022/06/21 13:04:47;;;;;;;0.40;0.25;;;27.40;41.00;;;26.84;26.59;99672.94;9839370;29;97358;-89
2022/06/21 13:10:07;;;;;;;0.93;0.20;;;27.60;41.50;;;26.83;25.48;99674.03;9817871;29;97171;-90
2022/06/21 13:16:04;;;;;;;0.08;0.05;;;27.60;40.00;;;26.65;25.54;99683.75;9842157;29;96486;-92
2022/06/21 13:21:40;;;;;;;0.30;0.28;;;27.40;40.90;;;26.70;25.40;99677.44;9773799;29;97271;-90
2022/06/21 13:26:46;;;;;;;0.40;0.20;;;27.40;40.90;;;26.78;25.64;99668.63;9835096;29;96920;-90
2022/06/21 13:32:02;;;;;;;0.70;0.22;;;27.40;40.60;;;26.91;25.59;99672.59;9839690;29;96881;-90
2022/06/21 13:37:33;;;;;;;0.20;0.10;;;27.60;41.10;;;26.94;24.92;99683.75;9848744;29;96555;-90
2022/06/21 13:42:44;;;;;;;0.25;0.15;;;27.60;40.70;;;27.13;25.79;99691.22;9856481;29;98414;-93
2022/06/21 13:48:03;;;;;;;0.40;0.28;;;27.60;41.20;;;27.03;24.42;99669.47;9825023;29;97240;-88
2022/06/21 13:53:19;;;;;;;0.20;0.10;;;27.70;39.50;;;27.01;24.90;99679.88;9859586;29;96564;-88
2022/06/21 13:58:35;;;;;;;0.20;0.10;;;27.60;40.20;;;26.90;24.63;99681.88;9847421;29;96521;-87
2022/06/21 14:04:06;;;;;;;0.73;0.57;;;27.50;39.70;;;26.99;24.94;99695.69;9811516;29;96693;-89
2022/06/21 14:09:47;;;;;;;0.20;0.10;;;27.60;40.80;;;26.85;24.40;99677.28;9817303;29;96538;-86
2022/06/21 14:15:19;;;;;;;0.28;0.20;;;27.50;40.20;;;26.86;25.33;99673.44;9817448;29;96714;-88
2022/06/21 14:20:40;;;;;;;0.70;0.28;;;27.40;40.90;;;27.08;26.05;99661.28;9840018;29;99344;-93
2022/06/21 14:26:06;;;;;;;0.20;0.20;;;27.60;41.40;;;27.31;25.29;99657.72;9843631;29;97636;-90
2022/06/21 14:31:31;;;;;;;0.28;0.20;;;27.80;40.70;;;27.07;24.66;99659.66;9834320;29;99029;-91
2022/06/21 14:37:01;;;;;;;0.20;0.20;;;27.70;40.10;;;27.08;25.34;99661.28;9810322;29;96551;-87
2022/06/21 14:42:23;;;;;;;0.22;0.10;;;27.60;40.50;;;26.95;24.38;99652.66;9856137;29;97505;-88
2022/06/21 14:47:46;;;;;;;0.20;0.10;;;27.60;39.60;;;26.81;25.45;99651.72;9851341;29;97438;-88
2022/06/21 14:53:14;;;;;;;0.35;0.28;;;27.40;40.40;;;26.92;25.62;99639.59;9828786;29;96643;-89
2022/06/21 14:58:36;;;;;;;0.10;0.10;;;27.40;40.40;;;27.05;25.95;99640.00;9810272;29;96663;-88
2022/06/21 15:03:57;;;;;;;0.32;0.20;;;27.60;41.10;;;26.98;25.36;99648.53;9852535;29;96654;-85
2022/06/21 15:09:18;;;;;;;0.98;0.25;;;27.60;39.70;;;26.89;25.50;99659.25;9815508;29;96749;-89
2022/06/21 15:14:40;;;;;;;0.30;0.28;;;27.40;40.80;;;27.05;24.99;99650.91;9823003;29;96674;-88
2022/06/21 15:20:05;;;;;;;0.20;0.13;;;27.60;39.20;;;26.88;24.26;99641.28;9834847;29;97445;-89
2022/06/21 15:25:33;;;;;;;0.13;0.13;;;27.50;39.30;;;26.94;25.20;99642.03;9830476;29;98573;-94
2022/06/21 15:30:57;;;;;;;0.10;0.10;;;27.50;40.00;;;26.88;24.62;99644.00;9857577;29;98614;-86
2022/06/21 15:36:21;;;;;;;0.32;0.20;;;27.40;39.20;;;26.64;25.34;99648.63;9809270;29;97990;-87
2022/06/21 15:41:41;;;;;;;0.20;0.20;;;27.20;40.30;;;26.56;26.25;99643.78;9824052;29;96715;-86
2022/06/21 15:50:12;;;;;;;0.30;0.30;;;27.10;41.10;;;26.48;25.85;99652.56;9818890;29;96555;-87
2022/06/21 15:52:22;;;;;;;0.10;0.10;;;27.10;40.60;;;26.36;25.68;99650.19;9844821;29;96561;-85
2022/06/21 15:58:11;;;;;;;0.20;0.20;;;27.00;40.50;;;26.23;26.64;99646.22;9837310;29;96799;-86
2022/06/21 16:03:23;;;;;;;0.52;0.30;;;26.80;41.70;;;26.25;26.70;99644.00;9837499;29;96694;-85
2022/06/21 16:09:03;;;;;;;0.08;0.08;;;26.80;41.40;;;26.34;26.64;99642.31;9834005;29;96741;-84
2022/06/21 16:14:10;;;;;;;0.40;0.40;;;26.90;41.90;;;26.31;26.80;99631.97;9826741;29;97352;-86
2022/06/21 16:19:16;;;;;;;0.15;0.13;;;26.90;41.70;;;26.11;26.32;99664.81;9859477;29;99004;-86
2022/06/21 16:24:56;;;;;;;0.20;0.20;;;26.70;41.20;;;25.76;26.82;99663.97;9831141;29;97087;-87
2022/06/21 16:30:11;;;;;;;0.10;0.10;;;26.40;41.40;;;25.70;27.09;99669.69;9828086;29;97229;-87
2022/06/21 16:35:32;;;;;;;0.32;0.10;;;26.30;41.80;;;25.64;27.47;99679.78;9839146;29;96576;-85
2022/06/21 16:46:48;;;;;;;0.47;0.20;;;26.10;42.30;;;25.45;27.92;99674.16;9840842;29;96742;-84
2022/06/21 16:51:53;;;;;;;0.17;0.17;;;26.10;42.80;;;25.35;28.00;99679.63;9798766;29;96868;-84
2022/06/21 16:56:56;;;;;;;2.75;0.28;;;25.90;42.80;;;25.20;28.13;99683.22;9837695;29;96664;-85
2022/06/21 17:02:05;;;;;;;1.83;0.20;;;25.80;42.80;;;25.01;28.17;99679.41;9811260;29;97715;-88
2022/06/21 17:07:14;;;;;;;0.43;0.15;;;25.70;42.70;;;24.88;28.54;99680.00;9835424;29;96835;-86
2022/06/21 17:12:17;;;;;;;1.27;0.25;;;25.60;43.20;;;24.66;28.41;99683.03;9819988;29;96657;-86
2022/06/21 17:17:48;;;;;;;0.30;0.20;;;25.40;42.70;;;24.40;29.09;99679.50;9837128;29;97106;-86
2022/06/21 17:23:16;;;;;;;0.10;0.10;;;25.20;43.40;;;24.16;29.02;99690.84;9849327;29;98201;-86
2022/06/21 17:28:35;;;;;;;0.25;0.20;;;25.00;43.10;;;24.00;29.07;99686.50;9843529;29;97270;-89
2022/06/21 17:33:54;;;;;;;0.10;0.10;;;24.80;42.90;;;23.74;29.25;99683.69;9849791;29;97903;-85
2022/06/21 17:39:30;;;;;;;0.10;0.10;;;24.60;43.10;;;23.46;29.69;99676.00;9842767;29;96766;-85
2022/06/21 17:44:38;;;;;;;0.52;0.30;;;24.30;43.60;;;23.26;30.65;99675.88;9825734;29;96616;-85
2022/06/21 17:50:00;;;;;;;0.43;0.25;;;24.10;44.70;;;23.01;31.31;99676.56;9835423;29;97183;-84
2022/06/21 17:55:36;;;;;;;0.10;0.10;;;23.80;45.90;;;22.71;32.12;99686.09;9824587;29;97766;-85
2022/06/21 18:00:52;;;;;;;0.15;0.15;;;23.60;46.40;;;22.46;32.69;99719.22;9837921;29;97236;-86
2022/06/21 18:06:08;;;;;;;0.43;0.30;;;23.30;46.90;;;22.18;33.21;99726.53;9816766;29;98572;-84
2022/06/21 18:11:33;;;;;;;0.28;0.20;;;23.10;46.80;;;21.97;33.76;99750.91;9844277;29;97069;-85
2022/06/21 18:17:03;;;;;;;0.82;0.20;;;22.90;47.80;;;21.71;34.09;99766.84;9825442;29;99229;-86
2022/06/21 18:22:25;;;;;;;0.20;0.20;;;22.70;47.70;;;21.46;34.48;99758.38;9847820;29;96765;-86
2022/06/21 18:28:14;;;;;;;0.40;0.20;;;22.40;48.20;;;21.31;35.49;99758.97;9827136;29;97931;-86
2022/06/21 18:33:17;;;;;;;0.40;0.32;;;22.30;48.80;;;21.16;35.59;99764.94;9828801;29;97319;-86
2022/06/21 18:39:17;;;;;;;0.52;0.30;;;22.20;49.30;;;20.92;36.12;99750.81;9811491;29;97558;-86
2022/06/21 18:45:03;;;;;;;0.70;0.70;;;21.90;50.00;;;20.68;37.24;99757.44;9830276;29;96626;-86
2022/06/21 18:50:19;;;;;;;0.38;0.30;;;21.70;51.10;;;20.48;37.77;99757.91;9840890;29;96606;-85
2022/06/21 18:55:43;;;;;;;0.43;0.38;;;21.50;51.10;;;20.31;38.31;99749.75;9843724;29;96579;-86
2022/06/21 19:01:10;;;;;;;0.75;0.50;;;21.30;51.40;;;20.15;38.99;99756.75;9846140;29;96648;-85
2022/06/21 19:12:47;;;;;;;0.10;0.10;;;21.10;51.90;;;19.78;39.69;99767.06;9710820;30;96680;-85
2022/06/21 19:18:14;;;;;;;;;;;20.90;52.30;;;19.59;39.98;99782.59;9803781;29;96896;-85
2022/06/21 19:23:25;;;;;;;0.63;0.30;;;20.70;52.70;;;19.35;40.31;99795.22;9846543;29;96681;-85
2022/06/21 19:29:00;;;;;;;0.25;0.25;;;20.60;52.40;;;19.10;40.89;99790.06;9844685;29;98779;-87
2022/06/21 19:34:31;;;;;;;0.63;0.30;;;20.30;53.30;;;18.90;41.23;99798.50;9814566;29;98893;-83
2022/06/21 19:39:55;;;;;;;;;;;20.10;54.40;;;18.80;41.66;99797.41;9827996;29;97150;-83
2022/06/21 19:45:28;;;;;;;0.68;0.30;;;19.90;55.00;;;18.70;41.96;99781.81;9841369;29;98178;-84
2022/06/21 19:50:43;;;;;;;0.60;0.40;;;19.80;55.30;;;18.62;42.84;99801.78;9837577;29;97437;-83
2022/06/21 19:55:49;;;;;;;0.40;0.30;;;19.70;55.00;;;18.56;42.36;99807.28;9828617;29;97653;-83
2022/06/21 20:01:08;;;;;;;0.52;0.30;;;19.60;54.70;;;18.53;42.78;99797.81;9837579;29;97882;-83
2022/06/21 20:06:38;;;;;;;0.50;0.40;;;19.60;55.50;;;18.44;43.25;99801.84;9846261;29;96981;-83
2022/06/21 20:11:55;;;;;;;0.60;0.47;;;19.60;55.60;;;18.36;43.73;99797.63;9849941;29;96597;-83
2022/06/21 20:17:37;;;;;;;0.30;0.30;;;19.50;56.30;;;18.25;44.20;99801.09;9855264;29;97417;-84
2022/06/21 20:23:13;;;;;;;0.35;0.35;;;19.30;56.00;;;18.21;44.81;99793.69;9841310;29;98473;-84
2022/06/21 20:28:41;;;;;;;0.60;0.40;;;19.30;56.50;;;18.18;44.56;99784.22;9860334;29;96787;-84
2022/06/21 20:33:58;;;;;;;0.57;0.30;;;19.30;56.70;;;18.13;44.35;99786.75;9855899;29;98495;-83
2022/06/21 20:39:18;;;;;;;1.13;0.40;;;19.20;57.10;;;18.13;44.48;99792.16;9863190;29;96947;-84
2022/06/21 20:44:38;;;;;;;0.50;0.40;;;19.20;57.10;;;18.12;44.42;99795.88;9810084;29;97149;-83
2022/06/21 20:50:22;;;;;;;1.05;0.50;;;19.20;57.70;;;18.08;44.27;99797.38;9838006;29;96693;-83
2022/06/21 20:55:27;;;;;;;0.50;0.40;;;19.10;57.50;;;18.09;44.45;99796.31;9699192;30;96859;-83
2022/06/21 21:00:34;;;;;;;0.47;0.38;;;19.00;57.50;;;18.13;44.29;99784.06;9779281;29;96719;-85
2022/06/21 21:05:43;;;;;;;1.35;0.43;;;19.00;57.60;;;18.23;44.08;99773.56;9863505;29;96520;-85
2022/06/21 21:11:12;;;;;;;0.53;0.30;;;19.10;57.40;;;18.32;44.19;99769.53;9846787;29;97496;-85
2022/06/21 21:16:40;;;;;;;0.80;0.50;;;19.20;57.40;;;18.39;43.76;99767.56;9847422;29;97119;-84
2022/06/21 21:22:02;;;;;;;0.40;0.40;;;19.20;57.10;;;18.47;43.87;99779.84;9863340;29;96817;-84
2022/06/21 21:27:12;;;;;;;0.90;0.50;;;19.30;57.10;;;18.49;43.86;99780.47;9848269;29;98338;-83
2022/06/21 21:33:05;;;;;;;1.65;0.47;;;19.40;57.50;;;18.44;43.75;99773.06;9830355;29;96576;-82
2022/06/21 21:38:42;;;;;;;0.30;0.30;;;19.40;57.10;;;18.43;43.70;99781.38;9827475;29;97550;-82
2022/06/21 21:43:52;;;;;;;0.70;0.50;;;19.30;57.00;;;18.41;43.59;99768.16;9831703;29;96736;-82
2022/06/21 21:49:12;;;;;;;1.00;0.50;;;19.30;57.10;;;18.44;43.46;99777.63;9862245;29;97003;-83
2022/06/21 21:54:16;;;;;;;0.30;0.30;;;19.30;56.90;;;18.46;43.54;99781.72;9819861;29;96604;-82
2022/06/21 21:59:38;;;;;;;0.63;0.43;;;19.40;57.10;;;18.50;43.47;99794.75;9845278;29;97985;-83
2022/06/21 22:05:12;;;;;;;2.72;0.40;;;19.40;56.90;;;18.49;43.71;99801.16;9820069;29;96903;-82
2022/06/21 22:10:27;;;;;;;0.30;0.30;;;19.40;57.00;;;18.49;43.64;99812.75;9848922;29;96639;-84
2022/06/21 22:16:44;;;;;;;0.60;0.60;;;19.50;57.20;;;18.46;43.71;99805.94;9856114;29;96764;-84
2022/06/21 22:22:28;;;;;;;0.50;0.50;;;19.40;56.90;;;18.36;44.16;99799.50;9809442;29;98495;-84
2022/06/21 22:27:36;;;;;;;0.47;0.40;;;19.30;57.60;;;18.17;44.59;99821.06;9845985;29;96839;-84
2022/06/21 22:32:57;;;;;;;0.43;0.38;;;19.20;57.80;;;17.99;45.30;99817.53;9846796;29;96747;-83
2022/06/21 22:38:02;;;;;;;0.43;0.30;;;19.00;58.20;;;17.80;45.52;99817.53;9857083;29;97921;-84
2022/06/21 22:43:22;;;;;;;0.55;0.40;;;18.90;58.70;;;17.61;46.48;99850.81;9811845;29;96710;-83
2022/06/21 22:48:34;;;;;;;0.47;0.40;;;18.70;59.30;;;17.44;46.73;99830.94;9819227;29;96756;-83
2022/06/21 22:53:48;;;;;;;0.30;0.30;;;18.50;59.30;;;17.37;47.17;99828.31;9809636;29;96704;-83